Time;durP1;ratioP1;P1;durP2;ratioP2;P2;SDS_P1;SDS_P2;PMS_P1;PMS_P2;Temp;Humidity;BMP_temperature;BMP_pressure;BME280_temperature;BME280_humidity;BME280_pressure;Samples;Min_cycle;Max_cycle;Signal;HPM_P1;HPM_P2
2024/01/26 00:02:45;;;;;;;12.77;9.98;;;22.70;65.80;;;;;;6180011;28;89075;-61
2024/01/26 00:05:47;;;;;;;11.93;9.98;;;22.70;65.90;;;;;;6176835;28;89113;-61
2024/01/26 00:08:49;;;;;;;12.27;9.55;;;22.70;65.80;;;;;;6173549;28;88307;-61
2024/01/26 00:11:51;;;;;;;12.93;10.40;;;22.70;65.90;;;;;;6183232;28;89086;-61
2024/01/26 00:14:54;;;;;;;12.73;10.40;;;22.70;65.90;;;;;;6178047;28;89147;-61
2024/01/26 00:17:56;;;;;;;13.05;10.48;;;22.70;65.90;;;;;;6178928;28;88333;-61
2024/01/26 00:20:58;;;;;;;11.93;10.25;;;22.70;65.90;;;;;;6179413;28;89083;-61
2024/01/26 00:24:01;;;;;;;14.90;11.32;;;22.70;65.90;;;;;;6180280;28;89202;-61
2024/01/26 00:27:03;;;;;;;14.77;11.55;;;22.70;65.90;;;;;;6180227;28;89675;-61
2024/01/26 00:30:09;;;;;;;12.35;10.65;;;22.70;66.00;;;;;;6182873;28;89163;-60
2024/01/26 00:33:11;;;;;;;13.57;11.82;;;22.60;65.90;;;;;;6172268;28;89022;-61
2024/01/26 00:36:13;;;;;;;14.05;11.85;;;22.60;66.00;;;;;;6169499;28;87975;-61
2024/01/26 00:39:16;;;;;;;13.32;11.32;;;22.60;66.00;;;;;;6188302;28;89202;-60
2024/01/26 00:42:18;;;;;;;14.18;12.32;;;22.60;65.90;;;;;;6188677;28;89121;-61
2024/01/26 00:45:22;;;;;;;14.40;11.73;;;22.60;65.90;;;;;;6185499;28;89118;-61
2024/01/26 00:48:24;;;;;;;15.05;12.38;;;22.60;65.90;;;;;;6179684;28;88707;-61
2024/01/26 00:51:26;;;;;;;15.02;12.43;;;22.60;66.10;;;;;;6174811;28;89652;-61
2024/01/26 00:54:28;;;;;;;14.18;12.50;;;22.60;65.90;;;;;;6187367;28;89195;-61
2024/01/26 00:57:29;;;;;;;14.13;12.63;;;22.60;66.00;;;;;;6182741;28;89296;-61
2024/01/26 01:00:33;;;;;;;13.85;12.35;;;22.60;65.90;;;;;;6177929;28;89096;-60
2024/01/26 01:03:35;;;;;;;14.15;12.55;;;22.50;66.00;;;;;;6178045;28;89338;-61
2024/01/26 01:06:37;;;;;;;16.90;13.63;;;22.50;66.00;;;;;;6175588;28;89097;-61
2024/01/26 01:09:40;;;;;;;15.52;13.18;;;22.50;65.90;;;;;;6182824;28;89299;-61
2024/01/26 01:12:42;;;;;;;15.50;13.13;;;22.50;66.00;;;;;;6177272;28;89293;-61
2024/01/26 01:15:46;;;;;;;17.95;14.45;;;22.60;66.20;;;;;;6167434;28;89320;-61
2024/01/26 01:18:48;;;;;;;15.60;13.65;;;22.50;66.10;;;;;;6178887;28;88376;-61
2024/01/26 01:21:50;;;;;;;14.93;13.32;;;22.50;66.10;;;;;;6187082;28;89087;-61
2024/01/26 01:24:52;;;;;;;15.50;13.80;;;22.50;66.10;;;;;;6166050;28;89067;-61
2024/01/26 01:27:54;;;;;;;15.60;13.73;;;22.50;66.10;;;;;;6177984;28;90162;-61
2024/01/26 01:30:57;;;;;;;16.35;13.73;;;22.50;66.10;;;;;;6171273;28;88003;-61
2024/01/26 01:33:59;;;;;;;15.50;13.80;;;22.50;66.10;;;;;;6176745;28;89114;-61
2024/01/26 01:37:01;;;;;;;17.08;14.10;;;22.50;66.10;;;;;;6186358;28;89088;-61
2024/01/26 01:40:03;;;;;;;17.20;14.00;;;22.50;66.10;;;;;;6186813;28;89264;-60
2024/01/26 01:43:05;;;;;;;17.80;14.57;;;22.50;66.10;;;;;;6189671;28;89171;-61
2024/01/26 01:46:09;;;;;;;15.02;13.45;;;22.50;66.10;;;;;;6183659;28;89255;-60
2024/01/26 01:49:11;;;;;;;15.07;13.45;;;22.40;66.10;;;;;;6181656;28;87227;-61
2024/01/26 01:52:16;;;;;;;15.70;14.10;;;22.40;66.10;;;;;;6182268;28;89007;-61
2024/01/26 01:55:19;;;;;;;15.57;13.25;;;22.40;66.20;;;;;;6184001;28;89037;-61
2024/01/26 01:58:22;;;;;;;16.27;13.75;;;22.40;66.20;;;;;;6181147;28;90067;-60
2024/01/26 02:01:26;;;;;;;14.65;13.02;;;22.40;66.10;;;;;;6181622;28;89076;-60
2024/01/26 02:04:28;;;;;;;16.92;13.77;;;22.40;66.20;;;;;;6187310;28;89072;-61
2024/01/26 02:07:30;;;;;;;15.55;13.40;;;22.40;66.20;;;;;;6182601;28;89112;-61
2024/01/26 02:10:32;;;;;;;16.75;14.27;;;22.40;66.20;;;;;;6182361;28;89204;-61
2024/01/26 02:13:34;;;;;;;16.05;13.88;;;22.40;66.20;;;;;;6181837;28;89176;-61
2024/01/26 02:16:37;;;;;;;17.08;14.00;;;22.40;66.20;;;;;;6183032;28;89468;-61
2024/01/26 02:19:39;;;;;;;16.50;13.65;;;22.30;66.30;;;;;;6189161;28;88326;-61
2024/01/26 02:22:41;;;;;;;15.05;13.15;;;22.40;66.20;;;;;;6182218;28;89173;-61
2024/01/26 02:25:44;;;;;;;15.30;13.32;;;22.40;66.30;;;;;;6182370;28;89505;-61
2024/01/26 02:28:46;;;;;;;16.48;13.82;;;22.30;66.20;;;;;;6181835;28;90007;-61
2024/01/26 02:31:48;;;;;;;15.63;13.57;;;22.40;66.20;;;;;;6184900;28;89103;-61
2024/01/26 02:34:50;;;;;;;15.15;13.23;;;22.40;66.20;;;;;;6180563;28;89064;-61
2024/01/26 02:37:52;;;;;;;15.32;13.52;;;22.40;66.20;;;;;;6180935;28;89102;-61
2024/01/26 02:40:56;;;;;;;15.65;13.10;;;22.30;66.20;;;;;;6185047;28;89543;-61
2024/01/26 02:43:58;;;;;;;14.52;12.27;;;22.30;67.10;;;;;;6181225;28;89230;-61
2024/01/26 02:47:00;;;;;;;14.65;13.05;;;22.30;66.20;;;;;;6189614;28;89097;-61
2024/01/26 02:50:02;;;;;;;14.77;13.15;;;22.30;66.30;;;;;;6182029;28;88380;-60
2024/01/26 02:53:04;;;;;;;13.75;12.30;;;22.20;66.30;;;;;;6182653;28;89525;-61
2024/01/26 02:56:08;;;;;;;14.85;13.27;;;22.30;66.40;;;;;;6170658;28;88216;-61
2024/01/26 02:59:10;;;;;;;16.05;13.27;;;22.30;66.40;;;;;;6176560;28;90007;-61
2024/01/26 03:02:12;;;;;;;14.55;12.77;;;22.30;66.40;;;;;;6163083;28;89053;-61
2024/01/26 03:05:14;;;;;;;16.98;13.35;;;22.30;66.40;;;;;;6181008;28;87953;-61
2024/01/26 03:08:16;;;;;;;15.20;12.88;;;22.20;66.40;;;;;;6181106;28;88897;-61
2024/01/26 03:11:19;;;;;;;14.10;12.50;;;22.20;66.40;;;;;;6180778;28;89132;-61
2024/01/26 03:14:21;;;;;;;13.20;11.55;;;22.20;66.40;;;;;;6177621;28;89007;-61
2024/01/26 03:17:23;;;;;;;14.13;12.00;;;22.20;66.40;;;;;;6180022;28;88999;-61
2024/01/26 03:20:25;;;;;;;13.27;11.73;;;22.20;66.40;;;;;;6182340;28;88288;-61
2024/01/26 03:23:27;;;;;;;13.52;12.13;;;22.20;66.40;;;;;;6177868;28;88316;-61
2024/01/26 03:26:31;;;;;;;14.80;12.45;;;22.20;66.50;;;;;;6174107;28;89350;-61
2024/01/26 03:29:33;;;;;;;13.27;11.82;;;22.20;66.50;;;;;;6177172;28;90477;-61
2024/01/26 03:32:35;;;;;;;15.80;12.02;;;22.20;66.50;;;;;;6179903;28;89025;-61
2024/01/26 03:35:36;;;;;;;13.82;12.23;;;22.20;66.50;;;;;;6178011;28;89074;-61
2024/01/26 03:38:38;;;;;;;13.52;11.40;;;22.20;66.50;;;;;;6185978;28;89094;-61
2024/01/26 03:41:42;;;;;;;13.23;11.23;;;22.20;66.50;;;;;;6175905;28;89028;-61
2024/01/26 03:44:44;;;;;;;13.65;11.75;;;22.20;67.50;;;;;;6176828;28;89163;-61
2024/01/26 03:47:46;;;;;;;13.80;11.00;;;22.20;66.60;;;;;;6176392;28;89317;-61
2024/01/26 03:50:48;;;;;;;12.95;11.07;;;22.20;66.60;;;;;;6167315;28;87960;-61
2024/01/26 03:53:50;;;;;;;14.05;11.52;;;22.20;66.60;;;;;;6183609;28;89052;-61
2024/01/26 03:56:53;;;;;;;13.15;11.25;;;22.20;66.60;;;;;;6169336;28;89066;-61
2024/01/26 03:59:55;;;;;;;12.20;10.90;;;22.20;66.60;;;;;;6170650;28;90090;-61
2024/01/26 04:02:57;;;;;;;12.70;10.98;;;22.10;66.60;;;;;;6181643;28;89092;-61
2024/01/26 04:06:03;;;;;;;14.95;11.52;;;22.20;66.60;;;;;;6178376;28;89553;-61
2024/01/26 04:09:06;;;;;;;11.48;10.07;;;22.20;66.60;;;;;;6187256;28;89526;-61
2024/01/26 04:12:09;;;;;;;11.30;10.05;;;22.20;66.60;;;;;;6174253;28;89181;-61
2024/01/26 04:15:11;;;;;;;11.40;10.10;;;22.10;66.60;;;;;;6177460;28;89078;-61
2024/01/26 04:18:13;;;;;;;12.65;10.65;;;22.10;66.60;;;;;;6174879;28;88983;-61
2024/01/26 04:21:15;;;;;;;12.82;10.52;;;22.10;66.60;;;;;;6180032;28;88449;-61
2024/01/26 04:24:17;;;;;;;10.98;9.65;;;22.20;66.70;;;;;;6175770;28;89156;-61
2024/01/26 04:27:21;;;;;;;11.45;9.50;;;22.10;66.60;;;;;;6172529;28;87949;-61
2024/01/26 04:30:24;;;;;;;10.55;9.40;;;22.10;66.60;;;;;;6173728;28;90018;-61
2024/01/26 04:33:25;;;;;;;11.25;9.43;;;22.10;66.60;;;;;;6168519;28;88005;-61
2024/01/26 04:36:28;;;;;;;11.95;9.95;;;22.10;66.60;;;;;;6180373;28;89065;-61
2024/01/26 04:39:30;;;;;;;11.82;9.73;;;22.10;66.50;;;;;;6167534;28;89078;-60
2024/01/26 04:42:33;;;;;;;11.65;9.70;;;22.10;66.60;;;;;;6176764;28;89078;-61
2024/01/26 04:45:35;;;;;;;10.68;8.90;;;22.10;66.50;;;;;;6176419;28;89125;-61
2024/01/26 04:48:37;;;;;;;11.35;9.50;;;22.10;66.30;;;;;;6165548;28;89422;-61
2024/01/26 04:51:39;;;;;;;10.13;8.88;;;22.10;66.20;;;;;;6175979;28;88641;-61
2024/01/26 04:54:41;;;;;;;10.45;9.18;;;22.10;66.20;;;;;;6184802;28;89151;-61
2024/01/26 04:57:44;;;;;;;10.30;8.90;;;22.10;66.20;;;;;;6188572;28;88008;-61
2024/01/26 05:00:48;;;;;;;10.70;9.25;;;22.10;66.10;;;;;;6178796;28;90072;-60
2024/01/26 05:03:50;;;;;;;11.30;8.90;;;22.10;66.10;;;;;;6161099;28;89088;-61
2024/01/26 05:06:52;;;;;;;10.43;9.07;;;22.20;66.10;;;;;;6173275;28;88976;-61
2024/01/26 05:09:54;;;;;;;10.13;8.77;;;22.20;66.00;;;;;;6180754;28;89060;-61
2024/01/26 05:12:57;;;;;;;10.13;8.93;;;22.20;65.90;;;;;;6170017;28;89201;-61
2024/01/26 05:15:59;;;;;;;9.60;8.30;;;22.30;66.00;;;;;;6172195;28;89060;-60
2024/01/26 05:19:01;;;;;;;9.30;8.38;;;22.30;66.00;;;;;;6183351;28;89138;-61
2024/01/26 05:22:03;;;;;;;9.25;8.25;;;22.30;65.90;;;;;;6174085;28;88567;-61
2024/01/26 05:25:06;;;;;;;9.57;8.48;;;22.30;65.90;;;;;;6173829;28;90137;-61
2024/01/26 05:28:09;;;;;;;10.98;8.70;;;22.30;65.90;;;;;;6181576;28;89154;-62
2024/01/26 05:31:11;;;;;;;9.60;8.32;;;22.40;65.90;;;;;;6172964;28;90133;-61
2024/01/26 05:34:14;;;;;;;9.45;8.38;;;22.30;65.80;;;;;;6173765;28;89136;-61
2024/01/26 05:37:15;;;;;;;9.48;8.48;;;22.30;65.80;;;;;;6179497;28;89172;-61
2024/01/26 05:40:17;;;;;;;9.52;8.52;;;22.40;65.90;;;;;;6172060;28;89070;-61
2024/01/26 05:43:21;;;;;;;11.07;8.63;;;22.30;65.80;;;;;;6169903;28;89217;-61
2024/01/26 05:46:23;;;;;;;10.02;8.23;;;22.40;65.80;;;;;;6168945;28;89049;-61
2024/01/26 05:49:26;;;;;;;8.93;7.72;;;22.40;65.80;;;;;;6181382;28;89163;-61
2024/01/26 05:52:28;;;;;;;8.73;7.75;;;22.40;65.60;;;;;;6181985;28;88198;-61
2024/01/26 05:55:30;;;;;;;9.95;8.23;;;22.40;65.60;;;;;;6182743;28;89624;-61
2024/01/26 05:58:33;;;;;;;9.93;8.00;;;22.50;66.00;;;;;;6172759;28;89640;-61
2024/01/26 06:01:37;;;;;;;8.52;7.63;;;22.40;66.00;;;;;;6179923;28;90102;-61
2024/01/26 06:04:39;;;;;;;9.30;7.88;;;22.50;66.10;;;;;;6168704;28;88938;-61
2024/01/26 06:07:41;;;;;;;10.30;8.05;;;22.50;66.10;;;;;;6178211;28;89164;-60
2024/01/26 06:10:43;;;;;;;9.43;7.78;;;22.60;66.10;;;;;;6166143;28;89759;-63
2024/01/26 06:13:46;;;;;;;12.15;8.68;;;22.60;66.20;;;;;;6172934;28;89132;-64
2024/01/26 06:16:49;;;;;;;9.60;8.07;;;22.60;66.10;;;;;;6173719;28;87986;-64
2024/01/26 06:19:51;;;;;;;8.15;7.30;;;22.60;66.10;;;;;;6184119;28;88950;-64
2024/01/26 06:22:53;;;;;;;8.45;7.60;;;22.60;66.10;;;;;;6178872;28;87376;-64
2024/01/26 06:25:55;;;;;;;10.48;8.02;;;22.60;66.20;;;;;;6174957;28;89039;-65
2024/01/26 06:28:58;;;;;;;8.57;7.53;;;22.70;66.40;;;;;;6185200;28;89081;-64
2024/01/26 06:32:00;;;;;;;8.73;7.80;;;22.70;66.40;;;;;;6183409;28;90438;-64
2024/01/26 06:35:02;;;;;;;9.30;7.75;;;22.70;66.60;;;;;;6180922;28;89218;-64
2024/01/26 06:38:04;;;;;;;8.02;7.22;;;22.70;66.40;;;;;;6182501;28;89445;-64
2024/01/26 06:41:07;;;;;;;19.08;9.95;;;22.70;66.40;;;;;;6140537;28;89374;-63
2024/01/26 06:44:13;;;;;;;28.42;12.85;;;22.70;66.90;;;;;;6129547;28;89662;-63
2024/01/26 06:47:15;;;;;;;20.20;11.30;;;22.80;72.30;;;;;;6128652;28;89799;-65
2024/01/26 06:50:17;;;;;;;9.65;8.10;;;22.70;69.30;;;;;;6162195;28;90853;-65
2024/01/26 06:53:21;;;;;;;8.90;7.97;;;22.70;67.40;;;;;;6173553;28;87630;-65
2024/01/26 06:56:23;;;;;;;10.23;8.43;;;22.70;67.10;;;;;;6175851;28;89561;-65
2024/01/26 06:59:26;;;;;;;10.55;8.52;;;22.70;66.90;;;;;;6191946;28;89152;-65
2024/01/26 07:02:28;;;;;;;9.38;8.38;;;22.70;66.90;;;;;;6183201;28;90026;-65
2024/01/26 07:05:30;;;;;;;9.82;8.15;;;22.70;66.90;;;;;;6174161;28;89270;-65
2024/01/26 07:08:32;;;;;;;9.48;8.02;;;22.70;66.90;;;;;;6185773;28;87949;-65
2024/01/26 07:11:34;;;;;;;9.57;8.18;;;22.70;66.90;;;;;;6181573;28;89180;-64
2024/01/26 07:14:38;;;;;;;9.02;7.57;;;22.70;66.80;;;;;;6184453;28;89002;-65
2024/01/26 07:17:40;;;;;;;7.90;7.10;;;22.70;66.90;;;;;;6181166;28;88934;-65
2024/01/26 07:20:42;;;;;;;10.48;7.85;;;22.60;66.70;;;;;;6183188;28;87073;-65
2024/01/26 07:23:44;;;;;;;11.02;7.57;;;22.70;66.80;;;;;;6180677;28;88828;-65
2024/01/26 07:26:46;;;;;;;9.32;7.85;;;22.70;66.90;;;;;;6179679;28;88501;-65
2024/01/26 07:29:49;;;;;;;8.98;7.15;;;22.70;66.90;;;;;;6179569;28;89503;-65
2024/01/26 07:32:51;;;;;;;9.90;7.80;;;22.60;66.70;;;;;;6176061;28;90057;-65
2024/01/26 07:35:53;;;;;;;8.75;7.22;;;22.60;66.70;;;;;;6179726;28;88913;-65
2024/01/26 07:38:55;;;;;;;7.90;6.90;;;22.60;66.70;;;;;;6188533;28;88974;-65
2024/01/26 07:41:57;;;;;;;8.18;7.38;;;22.60;66.60;;;;;;6184346;28;89111;-65
2024/01/26 07:45:01;;;;;;;8.65;6.78;;;22.60;66.60;;;;;;6176042;28;89133;-65
2024/01/26 07:48:03;;;;;;;10.00;7.47;;;22.70;66.60;;;;;;6175793;28;87876;-65
2024/01/26 07:51:05;;;;;;;9.05;7.03;;;22.70;66.60;;;;;;6178331;28;89222;-65
2024/01/26 07:54:08;;;;;;;9.48;7.18;;;22.70;66.60;;;;;;6182952;28;88331;-64
2024/01/26 07:57:10;;;;;;;8.18;7.07;;;22.70;66.50;;;;;;6175202;28;89104;-65
2024/01/26 08:00:14;;;;;;;7.35;6.47;;;22.70;66.50;;;;;;6183473;28;87998;-65
2024/01/26 08:03:16;;;;;;;8.52;6.90;;;22.70;66.40;;;;;;6173742;28;90022;-65
2024/01/26 08:06:18;;;;;;;7.22;6.47;;;22.70;66.40;;;;;;6177787;28;89441;-65
2024/01/26 08:09:20;;;;;;;8.43;6.53;;;22.70;66.40;;;;;;6170228;28;89435;-65
2024/01/26 08:12:22;;;;;;;8.50;6.93;;;22.70;66.40;;;;;;6173853;28;88947;-65
2024/01/26 08:15:26;;;;;;;8.38;6.60;;;22.80;66.40;;;;;;6181928;28;89083;-65
2024/01/26 08:18:28;;;;;;;8.20;6.78;;;22.80;66.40;;;;;;6177431;28;89001;-65
2024/01/26 08:21:30;;;;;;;9.00;6.78;;;22.80;66.40;;;;;;6181628;28;87997;-65
2024/01/26 08:24:32;;;;;;;7.32;6.50;;;22.80;66.30;;;;;;6186465;28;88324;-65
2024/01/26 08:27:34;;;;;;;9.23;6.68;;;22.80;66.30;;;;;;6174783;28;89349;-65
2024/01/26 08:30:38;;;;;;;7.80;6.50;;;22.80;66.30;;;;;;6177646;28;89108;-64
2024/01/26 08:33:40;;;;;;;7.10;6.15;;;22.80;66.40;;;;;;6183482;28;90084;-65
2024/01/26 08:36:42;;;;;;;7.05;6.13;;;22.80;66.30;;;;;;6179348;28;89039;-65
2024/01/26 08:39:45;;;;;;;9.20;6.95;;;22.80;66.30;;;;;;6177139;28;89053;-65
2024/01/26 08:42:47;;;;;;;6.38;5.78;;;22.80;66.30;;;;;;6180401;28;88073;-65
2024/01/26 08:45:50;;;;;;;8.57;6.35;;;22.80;66.30;;;;;;6179729;28;89206;-65
2024/01/26 08:48:52;;;;;;;7.30;5.90;;;22.80;66.30;;;;;;6178390;28;89063;-65
2024/01/26 08:51:54;;;;;;;7.32;5.90;;;22.80;67.20;;;;;;6183804;28;89080;-65
2024/01/26 08:54:56;;;;;;;7.50;6.00;;;22.90;66.40;;;;;;6182312;28;88463;-65
2024/01/26 08:57:58;;;;;;;6.63;5.68;;;22.80;66.30;;;;;;6179528;28;90037;-65
2024/01/26 09:01:01;;;;;;;6.47;5.85;;;22.90;66.40;;;;;;6178074;28;88927;-65
2024/01/26 09:04:05;;;;;;;6.78;5.53;;;22.90;66.40;;;;;;6170544;28;90094;-65
2024/01/26 09:07:07;;;;;;;7.05;5.60;;;22.90;66.50;;;;;;6175303;28;89221;-65
2024/01/26 09:10:10;;;;;;;9.10;6.65;;;22.90;66.60;;;;;;6183631;28;89076;-65
2024/01/26 09:13:12;;;;;;;7.22;5.72;;;22.90;66.70;;;;;;6179465;28;89446;-65
2024/01/26 09:16:15;;;;;;;6.68;5.47;;;22.90;66.70;;;;;;6181158;28;89021;-64
2024/01/26 09:19:17;;;;;;;6.30;5.53;;;22.90;66.70;;;;;;6180684;28;89111;-65
2024/01/26 09:22:19;;;;;;;7.40;5.65;;;22.90;66.70;;;;;;6173196;28;89144;-65
2024/01/26 09:25:21;;;;;;;8.15;6.05;;;22.90;66.70;;;;;;6171378;28;88769;-65
2024/01/26 09:28:23;;;;;;;6.32;5.28;;;22.90;66.70;;;;;;6180678;28;89186;-65
2024/01/26 09:31:27;;;;;;;5.70;5.05;;;22.90;66.70;;;;;;6181032;28;87980;-65
2024/01/26 09:34:29;;;;;;;7.05;5.50;;;22.90;66.70;;;;;;6170331;28;90196;-65
2024/01/26 09:37:31;;;;;;;6.55;5.28;;;22.90;66.70;;;;;;6184262;28;89331;-65
2024/01/26 09:40:34;;;;;;;6.47;5.45;;;22.90;66.80;;;;;;6183738;28;89148;-65
2024/01/26 09:43:36;;;;;;;6.90;5.15;;;22.90;66.90;;;;;;6182505;28;87762;-65
2024/01/26 09:46:41;;;;;;;5.60;5.00;;;22.90;66.90;;;;;;6163179;28;89077;-65
2024/01/26 09:49:50;;;;;;;5.03;4.53;;;22.90;66.80;;;;;;6177748;28;90066;-65
2024/01/26 09:52:53;;;;;;;6.13;4.78;;;22.90;66.90;;;;;;6181055;28;89197;-64
2024/01/26 09:55:56;;;;;;;5.53;4.90;;;23.00;66.90;;;;;;6185982;28;88667;-65
2024/01/26 09:58:58;;;;;;;5.80;5.03;;;23.00;66.90;;;;;;6183122;28;89170;-65
2024/01/26 10:02:02;;;;;;;6.20;5.15;;;23.00;66.90;;;;;;6181711;28;89070;-65
2024/01/26 10:05:06;;;;;;;5.57;4.75;;;23.00;66.90;;;;;;6186496;28;90067;-65
2024/01/26 10:08:09;;;;;;;4.95;4.45;;;23.00;66.90;;;;;;6181908;28;88921;-65
2024/01/26 10:11:11;;;;;;;6.43;4.93;;;23.00;66.80;;;;;;6178956;28;89409;-65
2024/01/26 10:14:21;;;;;;;5.32;4.60;;;23.00;66.90;;;;;;6176059;28;89070;-65
2024/01/26 10:17:25;;;;;;;6.30;4.95;;;23.00;66.90;;;;;;6180704;28;87913;-65
2024/01/26 10:20:27;;;;;;;5.35;4.85;;;23.00;66.90;;;;;;6180829;28;89083;-65
2024/01/26 10:23:30;;;;;;;5.70;4.70;;;23.00;66.90;;;;;;6179909;28;89036;-65
2024/01/26 10:26:32;;;;;;;5.45;4.85;;;23.00;67.00;;;;;;6186714;28;88315;-63
2024/01/26 10:29:35;;;;;;;7.72;5.15;;;22.90;66.90;;;;;;6173421;28;89082;-65
2024/01/26 10:32:38;;;;;;;5.28;4.50;;;22.90;67.00;;;;;;6180400;28;89068;-65
2024/01/26 10:35:47;;;;;;;5.72;4.65;;;23.00;67.10;;;;;;6179881;28;88945;-64
2024/01/26 10:38:50;;;;;;;9.70;6.60;;;23.00;67.10;;;;;;6188563;28;89484;-64
2024/01/26 10:41:53;;;;;;;6.88;5.82;;;23.00;75.90;;;;;;6180282;28;89243;-66
2024/01/26 10:44:55;;;;;;;7.43;6.57;;;23.00;77.60;;;;;;6181940;28;87875;-65
2024/01/26 10:47:59;;;;;;;9.52;8.63;;;23.00;75.20;;;;;;6181729;28;89465;-65
2024/01/26 10:51:03;;;;;;;9.80;8.90;;;23.10;77.20;;;;;;6185731;28;89229;-65
2024/01/26 10:54:10;;;;;;;9.98;9.07;;;23.20;77.20;;;;;;6179960;28;89419;-65
2024/01/26 10:57:12;;;;;;;10.85;9.75;;;23.30;77.40;;;;;;6192400;28;88351;-65
2024/01/26 11:00:15;;;;;;;9.15;7.03;;;23.40;79.50;;;;;;6179412;28;89075;-65
2024/01/26 11:03:19;;;;;;;9.93;8.93;;;23.40;74.50;;;;;;6176863;28;89290;-64
2024/01/26 11:06:21;;;;;;;7.53;6.72;;;23.60;81.00;;;;;;6181498;28;90124;-64
2024/01/26 11:09:25;;;;;;;6.97;5.88;;;23.90;74.50;;;;;;6179718;28;88051;-64
2024/01/26 11:12:29;;;;;;;6.78;6.05;;;24.30;72.20;;;;;;6173452;28;89189;-64
2024/01/26 11:15:32;;;;;;;6.07;5.47;;;24.60;71.10;;;;;;6180046;28;89060;-64
2024/01/26 11:18:38;;;;;;;7.63;6.43;;;24.80;70.30;;;;;;6171646;28;89091;-65
2024/01/26 11:21:44;;;;;;;6.22;5.63;;;24.80;69.40;;;;;;6179830;28;89133;-65
2024/01/26 11:24:46;;;;;;;8.27;6.07;;;24.70;68.80;;;;;;6177728;28;91221;-65
2024/01/26 11:27:57;;;;;;;6.18;5.22;;;24.70;68.70;;;;;;6192096;28;88327;-63
2024/01/26 11:30:59;;;;;;;6.95;5.75;;;24.60;68.80;;;;;;6178644;28;89087;-65
2024/01/26 11:34:03;;;;;;;5.93;5.18;;;24.50;70.10;;;;;;6179113;28;89166;-65
2024/01/26 11:37:11;;;;;;;5.47;4.97;;;24.30;68.80;;;;;;6184292;28;90159;-65
2024/01/26 11:40:14;;;;;;;5.50;4.90;;;24.30;68.60;;;;;;6185059;28;88953;-67
2024/01/26 11:43:16;;;;;;;5.38;4.22;;;24.20;68.60;;;;;;6174147;28;88238;-67
2024/01/26 11:46:19;;;;;;;5.68;4.30;;;24.10;68.00;;;;;;6176988;28;87954;-67
2024/01/26 11:49:22;;;;;;;4.72;4.25;;;24.00;67.60;;;;;;6179517;28;89119;-66
2024/01/26 11:52:24;;;;;;;4.85;4.00;;;23.90;67.40;;;;;;6184111;28;89159;-67
2024/01/26 11:55:26;;;;;;;5.20;4.35;;;23.90;67.60;;;;;;6183243;28;89119;-67
2024/01/26 11:58:28;;;;;;;5.90;4.43;;;23.90;67.90;;;;;;6176903;28;88652;-66
2024/01/26 12:01:31;;;;;;;6.82;4.82;;;23.80;67.80;;;;;;6174731;28;89328;-66
2024/01/26 12:04:36;;;;;;;5.03;4.35;;;23.80;67.80;;;;;;6181972;28;89164;-67
2024/01/26 12:07:39;;;;;;;4.97;4.07;;;23.70;67.80;;;;;;6178777;28;89760;-66
2024/01/26 12:10:42;;;;;;;5.75;4.43;;;23.70;67.80;;;;;;6185273;28;87843;-66
2024/01/26 12:13:44;;;;;;;5.80;3.88;;;23.70;67.90;;;;;;6180621;28;89068;-66
2024/01/26 12:16:46;;;;;;;6.20;4.15;;;23.70;68.80;;;;;;6179680;28;89186;-66
2024/01/26 12:19:50;;;;;;;4.30;3.28;;;23.70;67.90;;;;;;6185794;28;89071;-66
2024/01/26 12:22:54;;;;;;;2.83;1.85;;;23.70;67.50;;;;;;6176231;28;89149;-66
2024/01/26 12:25:56;;;;;;;4.55;1.98;;;23.50;64.20;;;;;;6179459;28;89147;-66
2024/01/26 12:28:59;;;;;;;4.32;2.05;;;23.40;63.50;;;;;;6179285;28;88472;-66
2024/01/26 12:32:04;;;;;;;5.78;2.42;;;23.20;63.30;;;;;;6181258;28;89030;-66
2024/01/26 12:35:09;;;;;;;10.00;3.63;;;23.10;63.50;;;;;;6180214;28;89200;-66
2024/01/26 12:38:12;;;;;;;6.65;2.90;;;23.00;64.50;;;;;;6175279;28;90134;-66
2024/01/26 12:41:14;;;;;;;7.03;2.53;;;22.90;64.50;;;;;;6182016;28;89094;-66
2024/01/26 12:44:16;;;;;;;11.30;3.83;;;22.90;64.70;;;;;;6179487;28;89139;-67
2024/01/26 12:47:18;;;;;;;4.47;1.80;;;22.70;64.50;;;;;;6175498;28;88135;-67
2024/01/26 12:50:21;;;;;;;5.78;2.30;;;22.70;64.20;;;;;;6179522;28;89156;-67
2024/01/26 12:53:23;;;;;;;5.57;2.08;;;22.70;64.60;;;;;;6185007;28;89625;-67
2024/01/26 12:56:27;;;;;;;5.47;2.25;;;22.70;65.00;;;;;;6186400;28;89165;-67
2024/01/26 12:59:29;;;;;;;6.47;2.42;;;22.70;65.30;;;;;;6177939;28;88381;-67
2024/01/26 13:02:31;;;;;;;5.63;2.33;;;22.80;65.40;;;;;;6174677;28;89179;-67
2024/01/26 13:05:34;;;;;;;10.80;3.38;;;22.80;65.50;;;;;;6179329;28;89011;-67
2024/01/26 13:08:36;;;;;;;12.40;3.35;;;22.80;65.80;;;;;;6174678;28;90140;-67
2024/01/26 13:11:39;;;;;;;9.32;3.28;;;22.80;65.90;;;;;;6182097;28;89234;-67
2024/01/26 13:14:41;;;;;;;8.43;3.20;;;22.80;66.10;;;;;;6183854;28;89460;-67
2024/01/26 13:17:43;;;;;;;10.60;4.25;;;22.90;66.20;;;;;;6177316;28;87944;-67
2024/01/26 13:20:47;;;;;;;10.48;4.25;;;22.90;66.70;;;;;;6180705;28;89231;-67
2024/01/26 13:23:48;;;;;;;8.18;3.88;;;23.00;67.20;;;;;;6185890;28;89405;-67
2024/01/26 13:26:51;;;;;;;10.20;4.35;;;23.00;67.20;;;;;;6186740;28;89135;-67
2024/01/26 13:29:53;;;;;;;10.07;4.03;;;23.00;67.10;;;;;;6183588;28;88681;-67
2024/01/26 13:32:55;;;;;;;10.88;4.15;;;23.00;67.10;;;;;;6187771;28;89541;-67
2024/01/26 13:35:58;;;;;;;9.25;3.70;;;23.00;66.90;;;;;;6183804;28;89344;-67
2024/01/26 13:39:00;;;;;;;7.88;4.00;;;23.00;66.90;;;;;;6175315;28;90030;-67
2024/01/26 13:42:03;;;;;;;7.40;3.90;;;23.00;66.90;;;;;;6189102;28;89116;-67
2024/01/26 13:45:11;;;;;;;8.57;3.88;;;23.00;66.90;;;;;;6176627;28;88153;-67
2024/01/26 13:48:13;;;;;;;6.80;3.78;;;23.00;66.90;;;;;;6180512;28;89064;-67
2024/01/26 13:51:16;;;;;;;8.77;3.85;;;23.00;66.90;;;;;;6178280;28;89081;-67
2024/01/26 13:54:18;;;;;;;8.00;3.67;;;23.00;67.00;;;;;;6178459;28;89184;-67
2024/01/26 13:57:20;;;;;;;7.97;4.22;;;23.00;66.90;;;;;;6182262;28;89100;-67
2024/01/26 14:00:23;;;;;;;11.82;4.93;;;23.00;67.10;;;;;;6182236;28;87530;-67
2024/01/26 14:03:25;;;;;;;6.50;3.92;;;23.00;67.10;;;;;;6172771;28;88986;-67
2024/01/26 14:06:29;;;;;;;6.65;3.75;;;23.00;67.10;;;;;;6182694;28;87993;-67
2024/01/26 14:09:31;;;;;;;7.68;3.88;;;23.00;67.10;;;;;;6174113;28;89121;-67
2024/01/26 14:12:33;;;;;;;8.45;4.43;;;23.10;67.00;;;;;;6173460;28;89729;-67
2024/01/26 14:15:35;;;;;;;6.57;3.80;;;23.00;66.90;;;;;;6182677;28;87891;-66
2024/01/26 14:18:37;;;;;;;8.40;4.70;;;23.00;66.90;;;;;;6170572;28;87985;-66
2024/01/26 14:21:41;;;;;;;5.53;3.60;;;23.10;68.90;;;;;;6176752;28;89618;-66
2024/01/26 14:24:44;;;;;;;5.10;3.10;;;23.00;70.80;;;;;;6179936;28;89138;-66
2024/01/26 14:27:46;;;;;;;6.97;2.95;;;23.10;68.90;;;;;;6177972;28;89130;-67
2024/01/26 14:30:48;;;;;;;6.22;2.85;;;23.00;67.90;;;;;;6180339;28;88613;-66
2024/01/26 14:33:50;;;;;;;7.18;2.80;;;23.00;68.30;;;;;;6181538;28;87978;-66
2024/01/26 14:36:54;;;;;;;6.60;3.28;;;23.00;68.70;;;;;;6193358;28;88913;-66
2024/01/26 14:39:56;;;;;;;9.70;3.47;;;23.00;68.80;;;;;;6185136;28;89962;-66
2024/01/26 14:42:58;;;;;;;8.82;3.17;;;23.00;69.70;;;;;;6176811;28;89163;-66
2024/01/26 14:46:00;;;;;;;9.50;3.25;;;23.10;70.80;;;;;;6177230;28;89136;-67
2024/01/26 14:49:03;;;;;;;7.13;3.10;;;23.10;70.80;;;;;;6176127;28;89158;-66
2024/01/26 14:52:07;;;;;;;5.57;3.15;;;23.10;70.50;;;;;;6183105;28;89189;-64
2024/01/26 14:55:11;;;;;;;7.50;3.40;;;23.20;70.20;;;;;;6172832;28;89004;-64
2024/01/26 14:58:14;;;;;;;8.00;3.00;;;23.10;70.00;;;;;;6169710;28;87978;-64
2024/01/26 15:01:16;;;;;;;5.53;3.25;;;23.10;72.30;;;;;;6173403;28;87353;-64
2024/01/26 15:04:18;;;;;;;7.07;3.40;;;23.10;70.00;;;;;;6167994;28;89141;-65
2024/01/26 15:07:21;;;;;;;8.38;3.50;;;23.10;69.80;;;;;;6175001;28;89409;-64
2024/01/26 15:10:23;;;;;;;5.15;3.55;;;23.10;69.60;;;;;;6166481;28;90325;-64
2024/01/26 15:13:26;;;;;;;7.45;3.42;;;23.10;69.60;;;;;;6170334;28;89090;-64
2024/01/26 15:16:32;;;;;;;7.30;3.22;;;23.10;69.50;;;;;;6176145;28;89460;-64
2024/01/26 15:19:35;;;;;;;9.35;3.35;;;23.10;69.60;;;;;;6176712;28;89300;-64
2024/01/26 15:22:39;;;;;;;7.47;3.30;;;23.10;69.60;;;;;;6183004;28;88932;-65
2024/01/26 15:25:40;;;;;;;5.40;3.25;;;23.10;69.60;;;;;;6178079;28;88560;-64
2024/01/26 15:28:44;;;;;;;6.93;3.40;;;23.10;69.50;;;;;;6178330;28;88993;-64
2024/01/26 15:31:46;;;;;;;7.05;3.20;;;23.10;69.40;;;;;;6179402;28;88372;-64
2024/01/26 15:34:48;;;;;;;6.15;3.15;;;23.10;69.40;;;;;;6181944;28;88340;-65
2024/01/26 15:37:51;;;;;;;6.43;3.10;;;23.10;69.30;;;;;;6170211;28;89186;-64
2024/01/26 15:40:53;;;;;;;8.13;3.65;;;23.10;69.30;;;;;;6174008;28;90387;-65
2024/01/26 15:43:55;;;;;;;4.88;2.90;;;23.10;69.10;;;;;;6175819;28;89094;-65